Airfield :
LOGIN :

Register | Disclaimer

   EN    FR    IT 

 










Legend :    VFR   Marginal VFR   IFR   Intensive IFR   Very Intensive IFR
Visi :
Ceiling :
>= 8 km
>= 3000ft
5 to 8 km
1000 to 3000 ft
1500m to 5 km
500 to 1000 ft
800 to 1500m
200 to 500 ft
< 800m
< 200 ft
Symbols :   Thunderstorms  Fog  Heavy snow  Heavy precipitations  Wind > 20 kt
SIGMETs :     Misc.  Thunderstorms  Icing  Turbulence  Mountain Waves  Volcanic Ashes







- Airport Elevation : 157 ft
- IATA code : LIL
- Download approach charts


LFQQ - Lille Lesquin

CURRENT METAR :
  • 240900Z AUTO 29004KT 210V020 CAVOK 17/10 Q1016 NOSIG

EXPIRED METARs :
  • 240830Z AUTO 28004KT 220V330 CAVOK 16/10 Q1016 NOSIG
  • 240800Z AUTO 24005KT 170V300 CAVOK 15/10 Q1016 NOSIG
  • 240730Z AUTO 25006KT 220V280 CAVOK 14/09 Q1016 NOSIG
  • 240700Z AUTO 24004KT 200V290 CAVOK 13/09 Q1016 NOSIG
  • 240630Z AUTO 26007KT CAVOK 13/08 Q1016 NOSIG

TAF TAF LFQQ
Valid from the 24 at 06:00 until the 25 at 12:00 UTC


240500Z 2406/2512 27005KT CAVOK
BECMG 2412/2414 34010KT
BECMG 2421/2424 VRB02KT
BECMG 2509/2512 30010KT
ATIS : +33 3 20 16 19 54
No reported NOTAMs for that airfield.



MET'MAP, your aeronautical weather chart ! - Copyright ORBIFLY December 2007 - Disclaimer

ORBIFLY MET'MAP TEAM :

Programming & Development : Alexandra Zaïnal
Concept & Development : Baudouin d'Aumeries
Co-Development & Prog : Marc-Olivier Méhu
Technical & hardware support : Manuel Goepfert

Contact : metmap@orbifly.com




SOURCES & CREDITS :

   NOAA